sensor_id;sensor_type;location;lat;lon;timestamp;pressure;altitude;pressure_sealevel;temperature;humidity
67803;BME280;54601;51.378;-1.342;2023-02-22T00:01:58;99887.74;;;17.86;33.52
67803;BME280;54601;51.378;-1.342;2023-02-22T00:04:23;99886.65;;;18.35;33.47
67803;BME280;54601;51.378;-1.342;2023-02-22T00:06:48;99889.03;;;18.28;33.57
67803;BME280;54601;51.378;-1.342;2023-02-22T00:09:14;99884.76;;;17.70;33.63
67803;BME280;54601;51.378;-1.342;2023-02-22T00:11:45;99891.14;;;17.97;33.50
67803;BME280;54601;51.378;-1.342;2023-02-22T00:14:09;99891.23;;;17.56;33.49
67803;BME280;54601;51.378;-1.342;2023-02-22T00:16:30;99888.11;;;18.04;33.55
67803;BME280;54601;51.378;-1.342;2023-02-22T00:18:55;99885.92;;;17.95;33.64
67803;BME280;54601;51.378;-1.342;2023-02-22T00:21:21;99888.02;;;18.01;33.39
67803;BME280;54601;51.378;-1.342;2023-02-22T00:23:47;99886.28;;;18.02;33.36
67803;BME280;54601;51.378;-1.342;2023-02-22T00:26:12;99885.33;;;17.93;33.64
67803;BME280;54601;51.378;-1.342;2023-02-22T00:28:36;99889.66;;;17.98;33.50
67803;BME280;54601;51.378;-1.342;2023-02-22T00:31:02;99892.17;;;18.00;33.37
67803;BME280;54601;51.378;-1.342;2023-02-22T00:33:27;99888.93;;;17.65;33.40
67803;BME280;54601;51.378;-1.342;2023-02-22T00:35:53;99882.91;;;17.92;33.33
67803;BME280;54601;51.378;-1.342;2023-02-22T00:38:18;99885.25;;;17.82;33.33
67803;BME280;54601;51.378;-1.342;2023-02-22T00:40:44;99891.52;;;17.73;33.61
67803;BME280;54601;51.378;-1.342;2023-02-22T00:43:09;99886.39;;;17.88;33.30
67803;BME280;54601;51.378;-1.342;2023-02-22T00:45:36;99886.54;;;17.70;33.58
67803;BME280;54601;51.378;-1.342;2023-02-22T00:48:00;99885.11;;;17.89;33.29
67803;BME280;54601;51.378;-1.342;2023-02-22T00:50:27;99885.11;;;17.67;33.44
67803;BME280;54601;51.378;-1.342;2023-02-22T00:52:51;99883.61;;;17.54;33.70
67803;BME280;54601;51.378;-1.342;2023-02-22T00:55:18;99873.77;;;17.65;33.53
67803;BME280;54601;51.378;-1.342;2023-02-22T00:57:41;99869.77;;;17.58;33.24
67803;BME280;54601;51.378;-1.342;2023-02-22T01:00:09;99869.02;;;17.70;33.37
67803;BME280;54601;51.378;-1.342;2023-02-22T01:02:31;99867.47;;;17.69;33.41
67803;BME280;54601;51.378;-1.342;2023-02-22T01:04:57;99868.07;;;17.27;33.67
67803;BME280;54601;51.378;-1.342;2023-02-22T01:07:22;99863.59;;;17.51;33.57
67803;BME280;54601;51.378;-1.342;2023-02-22T01:09:48;99859.89;;;17.62;33.46
67803;BME280;54601;51.378;-1.342;2023-02-22T01:12:13;99859.68;;;17.56;33.40
67803;BME280;54601;51.378;-1.342;2023-02-22T01:14:39;99857.70;;;17.63;33.36
67803;BME280;54601;51.378;-1.342;2023-02-22T01:17:04;99858.10;;;17.49;33.49
67803;BME280;54601;51.378;-1.342;2023-02-22T01:19:29;99854.66;;;17.58;33.44
67803;BME280;54601;51.378;-1.342;2023-02-22T01:21:55;99855.37;;;17.36;33.62
67803;BME280;54601;51.378;-1.342;2023-02-22T01:24:20;99860.04;;;17.47;33.52
67803;BME280;54601;51.378;-1.342;2023-02-22T01:26:50;99863.56;;;17.32;33.65
67803;BME280;54601;51.378;-1.342;2023-02-22T01:29:12;99859.64;;;17.47;33.45
67803;BME280;54601;51.378;-1.342;2023-02-22T01:31:36;99854.15;;;17.56;33.33
67803;BME280;54601;51.378;-1.342;2023-02-22T01:34:02;99845.65;;;17.53;33.31
67803;BME280;54601;51.378;-1.342;2023-02-22T01:36:27;99840.40;;;17.55;33.31
67803;BME280;54601;51.378;-1.342;2023-02-22T01:38:52;99839.77;;;17.07;33.57
67803;BME280;54601;51.378;-1.342;2023-02-22T01:41:18;99829.08;;;17.33;33.62
67803;BME280;54601;51.378;-1.342;2023-02-22T01:43:43;99827.24;;;17.31;33.57
67803;BME280;54601;51.378;-1.342;2023-02-22T01:48:39;99826.97;;;17.62;33.36
67803;BME280;54601;51.378;-1.342;2023-02-22T01:51:02;99821.79;;;17.37;33.47
67803;BME280;54601;51.378;-1.342;2023-02-22T01:53:31;99820.55;;;17.64;33.38
67803;BME280;54601;51.378;-1.342;2023-02-22T01:55:51;99817.12;;;17.42;33.29
67803;BME280;54601;51.378;-1.342;2023-02-22T01:58:18;99815.43;;;17.19;33.57
67803;BME280;54601;51.378;-1.342;2023-02-22T02:00:41;99809.37;;;17.02;33.48
67803;BME280;54601;51.378;-1.342;2023-02-22T02:03:09;99810.82;;;17.28;33.35
67803;BME280;54601;51.378;-1.342;2023-02-22T02:05:32;99809.78;;;17.17;33.59
67803;BME280;54601;51.378;-1.342;2023-02-22T02:07:57;99811.25;;;17.17;33.40
67803;BME280;54601;51.378;-1.342;2023-02-22T02:10:23;99805.92;;;17.12;33.59
67803;BME280;54601;51.378;-1.342;2023-02-22T02:12:49;99800.83;;;17.26;33.38
67803;BME280;54601;51.378;-1.342;2023-02-22T02:15:20;99800.93;;;17.25;33.39
67803;BME280;54601;51.378;-1.342;2023-02-22T02:17:39;99800.84;;;17.13;33.53
67803;BME280;54601;51.378;-1.342;2023-02-22T02:20:09;99795.73;;;17.19;33.44
67803;BME280;54601;51.378;-1.342;2023-02-22T02:22:40;99801.46;;;17.08;33.49
67803;BME280;54601;51.378;-1.342;2023-02-22T02:27:22;99801.65;;;17.08;33.41
67803;BME280;54601;51.378;-1.342;2023-02-22T02:29:58;99804.69;;;17.46;33.36
67803;BME280;54601;51.378;-1.342;2023-02-22T02:32:20;99805.45;;;17.17;33.43
67803;BME280;54601;51.378;-1.342;2023-02-22T02:34:43;99799.47;;;17.07;33.48
67803;BME280;54601;51.378;-1.342;2023-02-22T02:37:07;99798.46;;;17.01;33.48
67803;BME280;54601;51.378;-1.342;2023-02-22T02:39:29;99797.28;;;17.22;33.25
67803;BME280;54601;51.378;-1.342;2023-02-22T02:41:53;99797.87;;;17.06;33.36
67803;BME280;54601;51.378;-1.342;2023-02-22T02:44:23;99790.73;;;17.22;33.57
67803;BME280;54601;51.378;-1.342;2023-02-22T02:46:46;99786.47;;;17.04;33.52
67803;BME280;54601;51.378;-1.342;2023-02-22T02:49:12;99781.58;;;17.17;33.24
67803;BME280;54601;51.378;-1.342;2023-02-22T02:51:37;99780.96;;;17.05;33.48
67803;BME280;54601;51.378;-1.342;2023-02-22T02:54:01;99780.78;;;17.09;33.39
67803;BME280;54601;51.378;-1.342;2023-02-22T02:56:25;99772.48;;;17.53;33.44
67803;BME280;54601;51.378;-1.342;2023-02-22T02:58:52;99766.23;;;17.05;33.39
67803;BME280;54601;51.378;-1.342;2023-02-22T03:01:24;99768.93;;;17.24;33.18
67803;BME280;54601;51.378;-1.342;2023-02-22T03:03:50;99767.67;;;17.08;33.32
67803;BME280;54601;51.378;-1.342;2023-02-22T03:06:23;99768.02;;;16.93;33.53
67803;BME280;54601;51.378;-1.342;2023-02-22T03:08:37;99768.81;;;17.25;33.43
67803;BME280;54601;51.378;-1.342;2023-02-22T03:11:01;99770.24;;;17.27;33.30
67803;BME280;54601;51.378;-1.342;2023-02-22T03:13:29;99768.81;;;17.08;33.34
67803;BME280;54601;51.378;-1.342;2023-02-22T03:15:52;99763.63;;;17.34;33.22
67803;BME280;54601;51.378;-1.342;2023-02-22T03:18:17;99761.52;;;17.12;33.52
67803;BME280;54601;51.378;-1.342;2023-02-22T03:20:45;99758.03;;;17.13;33.28
67803;BME280;54601;51.378;-1.342;2023-02-22T03:23:10;99756.90;;;17.44;33.06
67803;BME280;54601;51.378;-1.342;2023-02-22T03:25:33;99754.92;;;17.07;33.19
67803;BME280;54601;51.378;-1.342;2023-02-22T03:27:58;99752.64;;;17.02;33.39
67803;BME280;54601;51.378;-1.342;2023-02-22T03:30:24;99754.16;;;17.12;33.40
67803;BME280;54601;51.378;-1.342;2023-02-22T03:32:51;99753.04;;;16.97;33.53
67803;BME280;54601;51.378;-1.342;2023-02-22T03:35:15;99750.81;;;16.73;33.55
67803;BME280;54601;51.378;-1.342;2023-02-22T03:37:40;99747.79;;;16.87;33.45
67803;BME280;54601;51.378;-1.342;2023-02-22T03:40:04;99748.56;;;16.69;33.53
67803;BME280;54601;51.378;-1.342;2023-02-22T03:42:30;99747.93;;;17.03;33.49
67803;BME280;54601;51.378;-1.342;2023-02-22T03:44:57;99746.01;;;16.89;33.41
67803;BME280;54601;51.378;-1.342;2023-02-22T03:47:26;99744.41;;;16.98;33.32
67803;BME280;54601;51.378;-1.342;2023-02-22T03:49:49;99745.51;;;17.34;33.09
67803;BME280;54601;51.378;-1.342;2023-02-22T03:52:10;99742.88;;;16.95;33.49
67803;BME280;54601;51.378;-1.342;2023-02-22T03:54:35;99741.62;;;17.39;32.92
67803;BME280;54601;51.378;-1.342;2023-02-22T03:57:05;99739.91;;;17.10;33.30
67803;BME280;54601;51.378;-1.342;2023-02-22T03:59:26;99743.10;;;17.04;33.46
67803;BME280;54601;51.378;-1.342;2023-02-22T04:01:52;99742.34;;;16.92;33.29
67803;BME280;54601;51.378;-1.342;2023-02-22T04:04:17;99737.27;;;16.83;33.20
67803;BME280;54601;51.378;-1.342;2023-02-22T04:06:42;99735.66;;;16.73;33.34
67803;BME280;54601;51.378;-1.342;2023-02-22T04:09:08;99733.17;;;16.93;33.45
67803;BME280;54601;51.378;-1.342;2023-02-22T04:11:33;99734.53;;;17.06;33.60
67803;BME280;54601;51.378;-1.342;2023-02-22T04:13:58;99737.95;;;16.63;33.65
67803;BME280;54601;51.378;-1.342;2023-02-22T04:16:24;99737.45;;;16.87;33.21
67803;BME280;54601;51.378;-1.342;2023-02-22T04:18:49;99735.33;;;17.03;33.04
67803;BME280;54601;51.378;-1.342;2023-02-22T04:21:15;99733.30;;;17.09;32.99
67803;BME280;54601;51.378;-1.342;2023-02-22T04:23:40;99730.62;;;16.85;33.40
67803;BME280;54601;51.378;-1.342;2023-02-22T04:26:05;99724.36;;;16.87;33.48
67803;BME280;54601;51.378;-1.342;2023-02-22T04:28:31;99721.59;;;17.01;33.32
67803;BME280;54601;51.378;-1.342;2023-02-22T04:30:56;99719.07;;;16.73;33.59
67803;BME280;54601;51.378;-1.342;2023-02-22T04:33:22;99719.09;;;17.03;33.31
67803;BME280;54601;51.378;-1.342;2023-02-22T04:35:47;99718.98;;;16.61;33.40
67803;BME280;54601;51.378;-1.342;2023-02-22T04:38:13;99717.10;;;16.45;33.95
67803;BME280;54601;51.378;-1.342;2023-02-22T04:40:38;99713.09;;;16.92;33.37
67803;BME280;54601;51.378;-1.342;2023-02-22T04:43:03;99709.52;;;16.55;33.61
67803;BME280;54601;51.378;-1.342;2023-02-22T04:45:29;99707.13;;;16.59;33.65
67803;BME280;54601;51.378;-1.342;2023-02-22T04:47:54;99707.87;;;17.36;33.18
67803;BME280;54601;51.378;-1.342;2023-02-22T04:50:20;99705.14;;;17.19;33.12
67803;BME280;54601;51.378;-1.342;2023-02-22T04:52:45;99707.74;;;17.10;33.47
67803;BME280;54601;51.378;-1.342;2023-02-22T04:55:11;99706.31;;;16.72;33.49
67803;BME280;54601;51.378;-1.342;2023-02-22T04:57:36;99705.87;;;17.51;33.14
67803;BME280;54601;51.378;-1.342;2023-02-22T05:00:03;99702.23;;;17.00;33.61
67803;BME280;54601;51.378;-1.342;2023-02-22T05:02:27;99701.88;;;16.44;33.96
67803;BME280;54601;51.378;-1.342;2023-02-22T05:04:52;99698.07;;;17.17;33.29
67803;BME280;54601;51.378;-1.342;2023-02-22T05:07:18;99695.78;;;16.71;33.50
67803;BME280;54601;51.378;-1.342;2023-02-22T05:09:43;99694.33;;;16.92;33.53
67803;BME280;54601;51.378;-1.342;2023-02-22T05:12:08;99694.73;;;16.92;33.38
67803;BME280;54601;51.378;-1.342;2023-02-22T05:14:34;99693.80;;;16.81;33.21
67803;BME280;54601;51.378;-1.342;2023-02-22T05:16:59;99690.67;;;17.40;33.14
67803;BME280;54601;51.378;-1.342;2023-02-22T05:19:24;99691.27;;;16.88;33.25
67803;BME280;54601;51.378;-1.342;2023-02-22T05:21:50;99689.55;;;16.77;33.48
67803;BME280;54601;51.378;-1.342;2023-02-22T05:24:16;99692.16;;;17.49;33.00
67803;BME280;54601;51.378;-1.342;2023-02-22T05:26:42;99689.01;;;17.00;33.10
67803;BME280;54601;51.378;-1.342;2023-02-22T05:29:06;99691.79;;;16.96;33.29
67803;BME280;54601;51.378;-1.342;2023-02-22T05:31:32;99695.20;;;16.37;33.54
67803;BME280;54601;51.378;-1.342;2023-02-22T05:33:57;99696.12;;;16.93;33.22
67803;BME280;54601;51.378;-1.342;2023-02-22T05:36:23;99696.63;;;16.60;33.36
67803;BME280;54601;51.378;-1.342;2023-02-22T05:38:48;99694.33;;;17.09;33.06
67803;BME280;54601;51.378;-1.342;2023-02-22T05:41:13;99696.53;;;16.83;33.13
67803;BME280;54601;51.378;-1.342;2023-02-22T05:43:39;99697.70;;;17.10;33.27
67803;BME280;54601;51.378;-1.342;2023-02-22T05:46:04;99697.05;;;16.91;33.17
67803;BME280;54601;51.378;-1.342;2023-02-22T05:48:30;99695.77;;;16.69;33.48
67803;BME280;54601;51.378;-1.342;2023-02-22T05:50:55;99697.98;;;16.62;33.36
67803;BME280;54601;51.378;-1.342;2023-02-22T05:53:21;99700.44;;;16.65;33.30
67803;BME280;54601;51.378;-1.342;2023-02-22T05:55:46;99701.72;;;16.45;33.62
67803;BME280;54601;51.378;-1.342;2023-02-22T05:58:11;99703.61;;;17.06;33.11
67803;BME280;54601;51.378;-1.342;2023-02-22T06:00:37;99704.44;;;17.03;33.11
67803;BME280;54601;51.378;-1.342;2023-02-22T06:03:04;99704.14;;;17.53;32.87
67803;BME280;54601;51.378;-1.342;2023-02-22T06:05:28;99699.27;;;16.75;33.72
67803;BME280;54601;51.378;-1.342;2023-02-22T06:07:54;99699.19;;;17.40;32.92
67803;BME280;54601;51.378;-1.342;2023-02-22T06:10:19;99691.78;;;16.65;33.49
67803;BME280;54601;51.378;-1.342;2023-02-22T06:12:44;99691.59;;;17.45;32.91
67803;BME280;54601;51.378;-1.342;2023-02-22T06:15:10;99685.11;;;16.57;33.51
67803;BME280;54601;51.378;-1.342;2023-02-22T06:17:35;99687.19;;;16.98;32.85
67803;BME280;54601;51.378;-1.342;2023-02-22T06:20:01;99685.84;;;16.84;33.15
67803;BME280;54601;51.378;-1.342;2023-02-22T06:22:26;99684.56;;;17.28;32.95
67803;BME280;54601;51.378;-1.342;2023-02-22T06:24:51;99688.71;;;16.89;33.12
67803;BME280;54601;51.378;-1.342;2023-02-22T06:27:17;99689.09;;;16.92;33.20
67803;BME280;54601;51.378;-1.342;2023-02-22T06:29:44;99691.62;;;17.41;32.87
67803;BME280;54601;51.378;-1.342;2023-02-22T06:32:07;99690.44;;;16.66;33.42
67803;BME280;54601;51.378;-1.342;2023-02-22T06:34:33;99690.32;;;16.84;33.06
67803;BME280;54601;51.378;-1.342;2023-02-22T06:36:58;99687.94;;;17.07;32.91
67803;BME280;54601;51.378;-1.342;2023-02-22T06:39:24;99684.98;;;16.96;32.93
67803;BME280;54601;51.378;-1.342;2023-02-22T06:41:49;99684.77;;;16.93;33.22
67803;BME280;54601;51.378;-1.342;2023-02-22T06:44:15;99682.70;;;16.87;33.75
67803;BME280;54601;51.378;-1.342;2023-02-22T06:46:46;99686.16;;;16.85;33.96
67803;BME280;54601;51.378;-1.342;2023-02-22T06:49:05;99688.27;;;17.16;33.66
67803;BME280;54601;51.378;-1.342;2023-02-22T06:51:35;99688.41;;;17.34;33.77
67803;BME280;54601;51.378;-1.342;2023-02-22T06:53:56;99692.31;;;17.81;33.32
67803;BME280;54601;51.378;-1.342;2023-02-22T06:56:22;99698.31;;;17.65;33.34
67803;BME280;54601;51.378;-1.342;2023-02-22T06:58:47;99696.01;;;17.79;33.47
67803;BME280;54601;51.378;-1.342;2023-02-22T07:01:13;99695.54;;;17.86;33.46
67803;BME280;54601;51.378;-1.342;2023-02-22T07:03:38;99697.33;;;17.72;33.49
67803;BME280;54601;51.378;-1.342;2023-02-22T07:06:05;99700.02;;;17.70;33.56
67803;BME280;54601;51.378;-1.342;2023-02-22T07:08:29;99695.38;;;17.78;33.59
67803;BME280;54601;51.378;-1.342;2023-02-22T07:10:55;99698.58;;;17.92;33.65
67803;BME280;54601;51.378;-1.342;2023-02-22T07:13:20;99698.11;;;17.99;33.72
67803;BME280;54601;51.378;-1.342;2023-02-22T07:15:45;99701.44;;;17.69;33.82
67803;BME280;54601;51.378;-1.342;2023-02-22T07:18:11;99704.33;;;18.01;33.76
67803;BME280;54601;51.378;-1.342;2023-02-22T07:20:36;99701.83;;;18.09;33.65
67803;BME280;54601;51.378;-1.342;2023-02-22T07:23:02;99704.44;;;17.93;33.70
67803;BME280;54601;51.378;-1.342;2023-02-22T07:25:27;99707.43;;;17.97;33.73
67803;BME280;54601;51.378;-1.342;2023-02-22T07:27:52;99710.27;;;18.03;33.79
67803;BME280;54601;51.378;-1.342;2023-02-22T07:30:20;99710.05;;;18.06;33.82
67803;BME280;54601;51.378;-1.342;2023-02-22T07:32:43;99713.06;;;18.04;33.82
67803;BME280;54601;51.378;-1.342;2023-02-22T07:35:14;99714.50;;;18.31;33.89
67803;BME280;54601;51.378;-1.342;2023-02-22T07:37:34;99716.27;;;17.81;34.01
67803;BME280;54601;51.378;-1.342;2023-02-22T07:39:59;99717.57;;;18.14;33.84
67803;BME280;54601;51.378;-1.342;2023-02-22T07:42:25;99718.48;;;18.17;33.94
67803;BME280;54601;51.378;-1.342;2023-02-22T07:44:50;99720.63;;;18.16;33.93
67803;BME280;54601;51.378;-1.342;2023-02-22T07:47:15;99720.00;;;18.30;33.80
67803;BME280;54601;51.378;-1.342;2023-02-22T07:49:41;99721.17;;;18.19;33.93
67803;BME280;54601;51.378;-1.342;2023-02-22T07:52:06;99721.84;;;18.22;33.92
67803;BME280;54601;51.378;-1.342;2023-02-22T07:54:32;99720.88;;;18.39;33.76
67803;BME280;54601;51.378;-1.342;2023-02-22T07:56:57;99720.95;;;18.38;33.74
67803;BME280;54601;51.378;-1.342;2023-02-22T07:59:22;99725.25;;;18.36;33.72
67803;BME280;54601;51.378;-1.342;2023-02-22T08:01:48;99727.77;;;18.51;33.58
67803;BME280;54601;51.378;-1.342;2023-02-22T08:04:13;99725.35;;;18.04;33.54
67803;BME280;54601;51.378;-1.342;2023-02-22T08:06:38;99725.31;;;18.75;33.41
67803;BME280;54601;51.378;-1.342;2023-02-22T08:09:04;99726.67;;;18.77;33.25
67803;BME280;54601;51.378;-1.342;2023-02-22T08:11:29;99728.91;;;18.50;33.32
67803;BME280;54601;51.378;-1.342;2023-02-22T08:13:55;99729.87;;;18.35;33.29
67803;BME280;54601;51.378;-1.342;2023-02-22T08:16:20;99727.35;;;18.66;33.28
67803;BME280;54601;51.378;-1.342;2023-02-22T08:18:45;99729.51;;;18.77;33.36
67803;BME280;54601;51.378;-1.342;2023-02-22T08:21:11;99733.72;;;18.67;33.54
67803;BME280;54601;51.378;-1.342;2023-02-22T08:23:36;99734.38;;;18.43;33.53
67803;BME280;54601;51.378;-1.342;2023-02-22T08:26:04;99736.13;;;18.39;33.58
67803;BME280;54601;51.378;-1.342;2023-02-22T08:28:27;99733.73;;;18.40;33.59
67803;BME280;54601;51.378;-1.342;2023-02-22T08:30:52;99734.41;;;18.64;33.55
67803;BME280;54601;51.378;-1.342;2023-02-22T08:33:18;99732.15;;;18.65;33.54
67803;BME280;54601;51.378;-1.342;2023-02-22T08:35:44;99731.64;;;18.73;33.46
67803;BME280;54601;51.378;-1.342;2023-02-22T08:38:16;99733.01;;;18.70;33.51
67803;BME280;54601;51.378;-1.342;2023-02-22T08:40:35;99732.45;;;18.88;33.37
67803;BME280;54601;51.378;-1.342;2023-02-22T08:43:00;99734.37;;;18.61;33.38
67803;BME280;54601;51.378;-1.342;2023-02-22T08:45:25;99738.43;;;18.51;33.49
67803;BME280;54601;51.378;-1.342;2023-02-22T08:47:50;99737.92;;;18.52;33.48
67803;BME280;54601;51.378;-1.342;2023-02-22T08:50:18;99733.64;;;18.52;33.45
67803;BME280;54601;51.378;-1.342;2023-02-22T08:52:41;99735.04;;;18.77;33.45
67803;BME280;54601;51.378;-1.342;2023-02-22T08:55:06;99734.20;;;18.55;33.44
67803;BME280;54601;51.378;-1.342;2023-02-22T08:57:31;99734.59;;;18.52;33.43
67803;BME280;54601;51.378;-1.342;2023-02-22T08:59:57;99735.37;;;18.18;33.50
67803;BME280;54601;51.378;-1.342;2023-02-22T09:02:22;99735.87;;;18.68;33.46
67803;BME280;54601;51.378;-1.342;2023-02-22T09:04:48;99733.32;;;18.67;33.45
67803;BME280;54601;51.378;-1.342;2023-02-22T09:07:13;99734.41;;;18.62;33.48
67803;BME280;54601;51.378;-1.342;2023-02-22T09:09:38;99730.95;;;18.58;33.49
67803;BME280;54601;51.378;-1.342;2023-02-22T09:12:04;99730.39;;;18.40;33.40
67803;BME280;54601;51.378;-1.342;2023-02-22T09:14:29;99732.55;;;18.57;33.44
67803;BME280;54601;51.378;-1.342;2023-02-22T09:16:54;99732.26;;;18.53;33.45
67803;BME280;54601;51.378;-1.342;2023-02-22T09:19:20;99729.38;;;18.53;33.41
67803;BME280;54601;51.378;-1.342;2023-02-22T09:21:51;99730.44;;;18.18;33.51
67803;BME280;54601;51.378;-1.342;2023-02-22T09:24:10;99730.91;;;18.15;33.52
67803;BME280;54601;51.378;-1.342;2023-02-22T09:26:37;99730.92;;;18.38;33.46
67803;BME280;54601;51.378;-1.342;2023-02-22T09:29:01;99733.38;;;18.11;33.50
67803;BME280;54601;51.378;-1.342;2023-02-22T09:31:26;99734.55;;;17.76;33.57
67803;BME280;54601;51.378;-1.342;2023-02-22T09:33:52;99738.34;;;18.20;33.59
67803;BME280;54601;51.378;-1.342;2023-02-22T09:36:17;99736.43;;;17.93;33.57
67803;BME280;54601;51.378;-1.342;2023-02-22T09:38:42;99738.15;;;17.64;33.57
67803;BME280;54601;51.378;-1.342;2023-02-22T09:41:12;99733.42;;;17.93;33.50
67803;BME280;54601;51.378;-1.342;2023-02-22T09:43:37;99735.04;;;18.16;33.47
67803;BME280;54601;51.378;-1.342;2023-02-22T09:48:24;99738.41;;;18.08;33.47
67803;BME280;54601;51.378;-1.342;2023-02-22T09:50:51;99741.20;;;18.09;33.43
67803;BME280;54601;51.378;-1.342;2023-02-22T09:53:21;99739.95;;;18.11;33.37
67803;BME280;54601;51.378;-1.342;2023-02-22T09:55:42;99737.83;;;18.05;33.40
67803;BME280;54601;51.378;-1.342;2023-02-22T09:58:11;99743.08;;;17.85;33.36
67803;BME280;54601;51.378;-1.342;2023-02-22T10:00:32;99741.36;;;18.10;33.27
67803;BME280;54601;51.378;-1.342;2023-02-22T10:03:04;99737.34;;;17.90;33.47
67803;BME280;54601;51.378;-1.342;2023-02-22T10:05:24;99735.20;;;17.90;33.35
67803;BME280;54601;51.378;-1.342;2023-02-22T10:07:53;99735.69;;;17.96;33.34
67803;BME280;54601;51.378;-1.342;2023-02-22T10:10:16;99736.11;;;17.93;33.39
67803;BME280;54601;51.378;-1.342;2023-02-22T10:12:43;99734.85;;;18.00;33.25
67803;BME280;54601;51.378;-1.342;2023-02-22T10:15:19;99735.25;;;17.76;33.20
67803;BME280;54601;51.378;-1.342;2023-02-22T10:17:35;99734.31;;;17.92;33.28
67803;BME280;54601;51.378;-1.342;2023-02-22T10:20:03;99734.81;;;17.88;33.26
67803;BME280;54601;51.378;-1.342;2023-02-22T10:22:31;99738.37;;;17.83;33.26
67803;BME280;54601;51.378;-1.342;2023-02-22T10:24:53;99741.50;;;17.76;33.34
67803;BME280;54601;51.378;-1.342;2023-02-22T10:27:16;99742.89;;;17.87;33.25
67803;BME280;54601;51.378;-1.342;2023-02-22T10:29:40;99745.93;;;17.85;33.19
67803;BME280;54601;51.378;-1.342;2023-02-22T10:32:03;99744.49;;;17.80;33.27
67803;BME280;54601;51.378;-1.342;2023-02-22T10:34:28;99751.51;;;17.75;33.30
67803;BME280;54601;51.378;-1.342;2023-02-22T10:36:56;99748.60;;;17.82;33.20
67803;BME280;54601;51.378;-1.342;2023-02-22T10:39:25;99752.17;;;17.77;33.26
67803;BME280;54601;51.378;-1.342;2023-02-22T10:41:47;99754.98;;;17.73;33.28
67803;BME280;54601;51.378;-1.342;2023-02-22T10:44:08;99753.87;;;17.62;33.38
67803;BME280;54601;51.378;-1.342;2023-02-22T10:46:33;99757.39;;;17.55;33.46
67803;BME280;54601;51.378;-1.342;2023-02-22T10:49:02;99761.99;;;17.83;33.42
67803;BME280;54601;51.378;-1.342;2023-02-22T10:51:24;99757.42;;;17.56;33.46
67803;BME280;54601;51.378;-1.342;2023-02-22T10:53:58;99760.42;;;17.57;33.41
67803;BME280;54601;51.378;-1.342;2023-02-22T10:56:17;99758.18;;;17.62;33.36
67803;BME280;54601;51.378;-1.342;2023-02-22T10:58:42;99758.82;;;17.63;33.32
67803;BME280;54601;51.378;-1.342;2023-02-22T11:03:31;99762.76;;;17.58;33.33
67803;BME280;54601;51.378;-1.342;2023-02-22T11:06:06;99763.19;;;17.81;33.29
67803;BME280;54601;51.378;-1.342;2023-02-22T11:08:25;99762.14;;;17.61;33.24
67803;BME280;54601;51.378;-1.342;2023-02-22T11:10:48;99762.56;;;17.58;33.32
67803;BME280;54601;51.378;-1.342;2023-02-22T11:13:17;99762.41;;;17.51;33.36
67803;BME280;54601;51.378;-1.342;2023-02-22T11:15:38;99766.90;;;17.51;33.33
67803;BME280;54601;51.378;-1.342;2023-02-22T11:18:04;99768.67;;;17.48;33.38
67803;BME280;54601;51.378;-1.342;2023-02-22T11:20:31;99772.27;;;17.64;33.16
67803;BME280;54601;51.378;-1.342;2023-02-22T11:22:56;99772.33;;;17.59;33.19
67803;BME280;54601;51.378;-1.342;2023-02-22T11:25:23;99767.24;;;17.31;33.22
67803;BME280;54601;51.378;-1.342;2023-02-22T11:27:45;99770.32;;;17.55;33.26
67803;BME280;54601;51.378;-1.342;2023-02-22T11:30:18;99768.96;;;17.62;33.16
67803;BME280;54601;51.378;-1.342;2023-02-22T11:32:42;99769.34;;;17.57;33.26
67803;BME280;54601;51.378;-1.342;2023-02-22T11:37:31;99769.72;;;17.66;33.16
67803;BME280;54601;51.378;-1.342;2023-02-22T11:40:04;99767.90;;;17.74;33.03
67803;BME280;54601;51.378;-1.342;2023-02-22T11:42:23;99768.43;;;17.77;33.01
67803;BME280;54601;51.378;-1.342;2023-02-22T11:44:43;99773.00;;;17.65;33.14
67803;BME280;54601;51.378;-1.342;2023-02-22T11:47:10;99774.85;;;17.93;33.03
67803;BME280;54601;51.378;-1.342;2023-02-22T11:49:35;99776.15;;;17.90;33.03
67803;BME280;54601;51.378;-1.342;2023-02-22T11:52:09;99776.09;;;17.55;33.23
67803;BME280;54601;51.378;-1.342;2023-02-22T11:56:52;99772.24;;;17.87;33.03
67803;BME280;54601;51.378;-1.342;2023-02-22T11:59:24;99774.48;;;17.63;33.05
67803;BME280;54601;51.378;-1.342;2023-02-22T12:01:46;99777.85;;;18.10;33.05
67803;BME280;54601;51.378;-1.342;2023-02-22T12:06:38;99778.14;;;17.90;32.98
67803;BME280;54601;51.378;-1.342;2023-02-22T12:09:06;99779.86;;;17.55;33.08
67803;BME280;54601;51.378;-1.342;2023-02-22T12:11:26;99781.35;;;17.63;32.95
67803;BME280;54601;51.378;-1.342;2023-02-22T12:13:57;99781.98;;;17.67;32.93
67803;BME280;54601;51.378;-1.342;2023-02-22T12:16:20;99783.87;;;17.71;32.84
67803;BME280;54601;51.378;-1.342;2023-02-22T12:18:45;99784.84;;;17.85;32.89
67803;BME280;54601;51.378;-1.342;2023-02-22T12:21:10;99785.02;;;17.57;32.95
67803;BME280;54601;51.378;-1.342;2023-02-22T12:23:37;99785.73;;;17.63;32.89
67803;BME280;54601;51.378;-1.342;2023-02-22T12:25:59;99785.65;;;17.63;33.12
67803;BME280;54601;51.378;-1.342;2023-02-22T12:28:25;99784.25;;;17.79;32.94
67803;BME280;54601;51.378;-1.342;2023-02-22T12:30:51;99781.77;;;17.58;32.91
67803;BME280;54601;51.378;-1.342;2023-02-22T12:33:14;99781.42;;;17.66;32.82
67803;BME280;54601;51.378;-1.342;2023-02-22T12:35:39;99781.30;;;17.65;33.03
67803;BME280;54601;51.378;-1.342;2023-02-22T12:38:07;99782.13;;;17.63;32.85
67803;BME280;54601;51.378;-1.342;2023-02-22T12:40:33;99782.48;;;17.64;32.79
67803;BME280;54601;51.378;-1.342;2023-02-22T12:42:58;99783.64;;;17.68;33.00
67803;BME280;54601;51.378;-1.342;2023-02-22T12:45:27;99782.97;;;17.77;32.90
67803;BME280;54601;51.378;-1.342;2023-02-22T12:47:50;99786.40;;;17.47;32.98
67803;BME280;54601;51.378;-1.342;2023-02-22T12:50:16;99786.60;;;17.65;32.75
67803;BME280;54601;51.378;-1.342;2023-02-22T12:52:41;99787.05;;;17.64;32.99
67803;BME280;54601;51.378;-1.342;2023-02-22T12:55:05;99786.19;;;17.66;32.92
67803;BME280;54601;51.378;-1.342;2023-02-22T12:57:33;99787.74;;;17.62;32.71